createdAt,value
2022-09-25T00:01:15.239Z,8.40
2022-09-25T00:03:42.146Z,8.50
2022-09-25T00:06:12.700Z,8.50
2022-09-25T00:08:40.265Z,8.50
2022-09-25T00:11:13.571Z,8.60
2022-09-25T00:13:41.798Z,8.60
2022-09-25T00:16:11.952Z,8.50
2022-09-25T00:18:57.594Z,8.50
2022-09-25T00:21:28.413Z,8.50
2022-09-25T00:23:55.288Z,8.50
2022-09-25T00:26:22.093Z,8.50
2022-09-25T00:28:57.633Z,8.50
2022-09-25T00:31:25.143Z,8.50
2022-09-25T00:33:53.556Z,8.40
2022-09-25T00:36:21.075Z,8.40
2022-09-25T00:38:49.006Z,8.40
2022-09-25T00:41:20.676Z,8.40
2022-09-25T00:43:51.341Z,8.40
2022-09-25T00:46:18.255Z,8.50
2022-09-25T00:49:13.285Z,8.30
2022-09-25T00:51:51.663Z,8.20
2022-09-25T00:54:31.765Z,8.20
2022-09-25T00:57:06.827Z,8.20
2022-09-25T00:59:38.675Z,8.20
2022-09-25T01:02:14.452Z,8.20
2022-09-25T01:04:46.199Z,8.20
2022-09-25T01:07:15.068Z,8.10
2022-09-25T01:09:45.671Z,8.10
2022-09-25T01:12:12.889Z,8.10
2022-09-25T01:14:41.653Z,8.10
2022-09-25T01:17:11.536Z,8.10
2022-09-25T01:20:07.178Z,8.10
2022-09-25T01:22:52.055Z,8.00
2022-09-25T01:25:56.995Z,8.00
2022-09-25T01:28:50.539Z,8.00
2022-09-25T01:31:32.625Z,8.00
2022-09-25T01:34:20.652Z,7.90
2022-09-25T01:37:04.236Z,7.90
2022-09-25T01:39:38.409Z,7.90
2022-09-25T01:42:20.671Z,8.00
2022-09-25T01:45:02.427Z,7.90
2022-09-25T01:47:30.934Z,7.90
2022-09-25T01:50:05.365Z,7.90
2022-09-25T01:52:37.715Z,7.90
2022-09-25T01:55:27.432Z,7.80
2022-09-25T01:58:03.784Z,7.80
2022-09-25T02:00:32.456Z,7.70
2022-09-25T02:03:12.162Z,7.70
2022-09-25T02:06:01.503Z,7.60
2022-09-25T02:08:39.691Z,7.70
2022-09-25T02:11:08.840Z,7.60
2022-09-25T02:13:54.156Z,7.60
2022-09-25T02:16:27.600Z,7.50
2022-09-25T02:19:23.534Z,7.50
2022-09-25T02:22:25.163Z,7.50
2022-09-25T02:25:13.015Z,7.40
2022-09-25T02:27:39.995Z,7.40
2022-09-25T02:30:07.316Z,7.30
2022-09-25T02:32:34.108Z,7.40
2022-09-25T02:35:01.227Z,7.30
2022-09-25T02:37:30.059Z,7.30
2022-09-25T02:40:02.307Z,7.20
2022-09-25T02:42:55.497Z,7.20
2022-09-25T02:45:40.359Z,7.20
2022-09-25T02:48:24.252Z,7.10
2022-09-25T02:51:28.865Z,7.10
2022-09-25T02:54:21.163Z,7.10
2022-09-25T02:57:12.666Z,7.10
2022-09-25T02:59:47.868Z,7.00
2022-09-25T03:02:16.563Z,7.00
2022-09-25T03:04:50.592Z,7.00
2022-09-25T03:07:19.531Z,7.00
2022-09-25T03:09:49.193Z,6.80
2022-09-25T03:12:16.481Z,6.80
2022-09-25T03:14:43.477Z,6.80
2022-09-25T03:17:11.714Z,7.00
2022-09-25T03:19:38.525Z,7.00
2022-09-25T03:22:05.395Z,7.00
2022-09-25T03:24:32.235Z,7.00
2022-09-25T03:26:59.321Z,7.00
2022-09-25T03:29:26.111Z,6.90
2022-09-25T03:31:52.898Z,6.90
2022-09-25T03:34:20.025Z,6.80
2022-09-25T03:36:47.683Z,6.80
2022-09-25T03:39:20.487Z,6.80
2022-09-25T03:41:50.928Z,6.80
2022-09-25T03:44:17.810Z,6.70
2022-09-25T03:46:45.116Z,6.80
2022-09-25T03:49:12.840Z,6.70
2022-09-25T03:51:39.797Z,6.70
2022-09-25T03:54:15.952Z,6.70
2022-09-25T03:56:45.767Z,6.70
2022-09-25T03:59:12.559Z,6.70
2022-09-25T04:01:40.215Z,6.80
2022-09-25T04:04:07.198Z,6.70
2022-09-25T04:06:34.000Z,6.70
2022-09-25T04:09:00.772Z,6.70
2022-09-25T04:11:27.616Z,6.70
2022-09-25T04:13:57.363Z,6.80
2022-09-25T04:16:24.479Z,6.80
2022-09-25T04:18:51.527Z,6.80
2022-09-25T04:21:18.664Z,6.80
2022-09-25T04:24:05.662Z,6.80
2022-09-25T04:26:32.785Z,6.80
2022-09-25T04:29:01.504Z,6.80
2022-09-25T04:31:29.324Z,6.80
2022-09-25T04:33:56.349Z,6.70
2022-09-25T04:36:23.266Z,6.70
2022-09-25T04:38:50.067Z,6.70
2022-09-25T04:41:19.705Z,6.80
2022-09-25T04:43:46.643Z,6.80
2022-09-25T04:46:20.112Z,6.80
2022-09-25T04:48:48.514Z,6.80
2022-09-25T04:51:16.089Z,6.80
2022-09-25T04:53:43.207Z,6.80
2022-09-25T04:56:15.835Z,6.90
2022-09-25T04:58:47.971Z,6.90
2022-09-25T05:01:17.243Z,6.90
2022-09-25T05:03:44.277Z,6.90
2022-09-25T05:06:11.239Z,6.90
2022-09-25T05:08:38.110Z,6.90
2022-09-25T05:11:05.670Z,6.90
2022-09-25T05:13:38.420Z,7.00
2022-09-25T05:16:05.496Z,7.00
2022-09-25T05:18:32.398Z,7.00
2022-09-25T05:21:03.928Z,7.00
2022-09-25T05:23:30.780Z,7.00
2022-09-25T05:26:03.852Z,7.00
2022-09-25T05:28:31.926Z,7.00
2022-09-25T05:31:02.773Z,7.00
2022-09-25T05:33:33.554Z,7.10
2022-09-25T05:36:05.485Z,7.10
2022-09-25T05:38:33.746Z,7.10
2022-09-25T05:41:08.755Z,7.10
2022-09-25T05:43:43.368Z,7.20
2022-09-25T05:46:11.405Z,7.20
2022-09-25T05:48:38.882Z,7.20
2022-09-25T05:51:06.615Z,7.30
2022-09-25T05:53:33.438Z,7.40
2022-09-25T05:56:02.008Z,7.50
2022-09-25T05:58:30.858Z,7.60
2022-09-25T06:01:03.435Z,7.70
2022-09-25T06:03:30.949Z,7.70
2022-09-25T06:05:59.328Z,7.80
2022-09-25T06:08:27.364Z,7.90
2022-09-25T06:10:55.400Z,7.90
2022-09-25T06:13:23.580Z,8.00
2022-09-25T06:15:52.520Z,8.10
2022-09-25T06:18:24.212Z,8.20
2022-09-25T06:20:52.770Z,8.30
2022-09-25T06:23:19.838Z,8.40
2022-09-25T06:25:46.622Z,8.50
2022-09-25T06:28:13.443Z,8.60
2022-09-25T06:30:40.370Z,8.70
2022-09-25T06:33:12.673Z,8.80
2022-09-25T06:35:50.085Z,9.00
2022-09-25T06:38:17.529Z,9.10
2022-09-25T06:40:45.466Z,9.10
2022-09-25T06:43:16.734Z,9.20
2022-09-25T06:45:44.660Z,9.20
2022-09-25T06:48:18.170Z,9.20
2022-09-25T06:50:53.253Z,9.20
2022-09-25T06:53:22.637Z,9.30
2022-09-25T06:55:50.345Z,9.40
2022-09-25T06:58:20.597Z,9.40
2022-09-25T07:00:49.199Z,9.60
2022-09-25T07:03:34.829Z,9.60
2022-09-25T07:06:03.800Z,9.70
2022-09-25T07:08:31.159Z,9.80
2022-09-25T07:11:02.388Z,9.80
2022-09-25T07:13:32.865Z,9.80
2022-09-25T07:16:02.072Z,9.90
2022-09-25T07:18:29.722Z,10.00
2022-09-25T07:21:02.122Z,10.00
2022-09-25T07:23:31.104Z,10.00
2022-09-25T07:26:14.015Z,10.10
2022-09-25T07:28:42.194Z,10.10
2022-09-25T07:31:19.316Z,10.20
2022-09-25T07:33:47.066Z,10.30
2022-09-25T07:36:15.318Z,10.40
2022-09-25T07:38:42.985Z,10.50
2022-09-25T07:41:13.581Z,10.70
2022-09-25T07:43:43.499Z,10.80
2022-09-25T07:46:18.253Z,10.90
2022-09-25T07:48:47.910Z,10.90
2022-09-25T07:51:14.712Z,11.00
2022-09-25T07:53:42.976Z,11.20
2022-09-25T07:56:11.921Z,11.30
2022-09-25T07:58:40.228Z,11.30
2022-09-25T08:01:10.909Z,11.50
2022-09-25T08:03:37.929Z,11.60
2022-09-25T08:06:11.770Z,11.70
2022-09-25T08:08:40.200Z,11.80
2022-09-25T08:11:12.580Z,12.00
2022-09-25T08:13:41.334Z,12.10
2022-09-25T08:16:13.589Z,12.10
2022-09-25T08:18:41.884Z,12.20
2022-09-25T08:21:10.246Z,12.10
2022-09-25T08:23:37.277Z,12.30
2022-09-25T08:26:04.083Z,12.40
2022-09-25T08:28:31.328Z,12.60
2022-09-25T08:31:00.344Z,12.80
2022-09-25T08:33:27.464Z,13.00
2022-09-25T08:35:59.051Z,13.10
2022-09-25T08:38:27.169Z,13.30
2022-09-25T08:41:17.346Z,13.30
2022-09-25T08:44:07.509Z,13.70
2022-09-25T08:47:04.150Z,14.00
2022-09-25T08:49:36.777Z,14.10
2022-09-25T08:52:13.598Z,14.50
2022-09-25T08:54:43.433Z,14.70
2022-09-25T08:57:28.365Z,14.80
2022-09-25T09:00:02.353Z,15.00
2022-09-25T09:02:53.425Z,15.20
2022-09-25T09:05:23.064Z,15.40
2022-09-25T09:07:57.582Z,15.70
2022-09-25T09:10:53.335Z,15.90
2022-09-25T09:14:02.879Z,16.00
2022-09-25T09:17:05.441Z,16.20
2022-09-25T09:19:38.299Z,16.40
2022-09-25T09:22:47.166Z,16.80
2022-09-25T09:25:55.094Z,17.00
2022-09-25T09:28:53.032Z,17.30
2022-09-25T09:31:52.475Z,17.50
2022-09-25T09:35:07.342Z,17.90
2022-09-25T09:37:52.871Z,18.50
2022-09-25T09:40:47.257Z,19.30
2022-09-25T09:43:56.499Z,19.60
2022-09-25T09:46:32.779Z,19.80
2022-09-25T09:49:05.655Z,19.70
2022-09-25T09:51:39.965Z,19.90
2022-09-25T09:54:17.956Z,20.10
2022-09-25T09:56:55.359Z,19.90
2022-09-25T09:59:31.926Z,19.80
2022-09-25T10:02:18.519Z,19.70
2022-09-25T10:04:47.975Z,19.90
2022-09-25T10:07:18.529Z,20.10
2022-09-25T10:09:48.407Z,20.40
2022-09-25T10:12:36.373Z,20.70
2022-09-25T10:15:15.089Z,21.10
2022-09-25T10:18:15.284Z,21.20
2022-09-25T10:20:49.605Z,21.60
2022-09-25T10:23:35.525Z,22.00
2022-09-25T10:26:02.523Z,22.30
2022-09-25T10:28:34.268Z,22.80
2022-09-25T10:31:03.208Z,23.20
2022-09-25T10:33:31.591Z,23.30
2022-09-25T10:35:58.798Z,23.00
2022-09-25T10:38:39.465Z,23.10
2022-09-25T10:41:18.605Z,23.40
2022-09-25T10:43:55.656Z,23.80
2022-09-25T10:46:54.684Z,24.00
2022-09-25T10:49:43.102Z,24.10
2022-09-25T10:52:15.823Z,24.30
2022-09-25T10:54:45.488Z,24.40
2022-09-25T10:57:18.124Z,24.50
2022-09-25T10:59:52.667Z,24.80
2022-09-25T11:02:42.160Z,25.00
2022-09-25T11:05:22.000Z,25.00
2022-09-25T11:07:55.318Z,25.00
2022-09-25T11:10:27.720Z,25.60
2022-09-25T11:12:56.664Z,26.00
2022-09-25T11:15:35.044Z,26.00
2022-09-25T11:18:06.241Z,25.80
2022-09-25T11:20:33.231Z,25.80
2022-09-25T11:23:08.735Z,26.10
2022-09-25T11:25:58.620Z,26.30
2022-09-25T11:28:44.444Z,26.80
2022-09-25T11:31:29.999Z,27.40
2022-09-25T11:36:59.319Z,28.20
2022-09-25T11:39:54.191Z,28.70
2022-09-25T11:43:05.920Z,29.10
2022-09-25T11:45:42.133Z,29.80
2022-09-25T11:48:29.002Z,30.20
2022-09-25T11:55:00.432Z,30.00
2022-09-25T11:57:51.726Z,30.50
2022-09-25T12:03:51.207Z,29.70
2022-09-25T12:06:49.101Z,29.80
2022-09-25T12:09:54.381Z,29.80
2022-09-25T12:12:53.305Z,28.50
2022-09-25T12:15:23.093Z,26.70
2022-09-25T12:17:49.934Z,27.10
2022-09-25T12:20:54.225Z,27.50
2022-09-25T12:23:36.017Z,27.80
2022-09-25T12:26:26.920Z,27.90
2022-09-25T12:29:29.063Z,28.50
2022-09-25T12:32:05.890Z,29.30
2022-09-25T12:34:56.663Z,29.20
2022-09-25T12:37:43.690Z,29.40
2022-09-25T12:40:43.528Z,28.20
2022-09-25T12:43:41.616Z,27.00
2022-09-25T12:46:17.832Z,26.40
2022-09-25T12:49:19.830Z,25.90
2022-09-25T12:51:51.397Z,25.00
2022-09-25T12:54:24.200Z,24.20
2022-09-25T12:57:01.988Z,23.80
2022-09-25T12:59:56.701Z,23.80
2022-09-25T13:02:38.196Z,23.70
2022-09-25T13:05:34.130Z,23.40
2022-09-25T13:08:31.551Z,23.00
2022-09-25T13:11:15.858Z,22.70
2022-09-25T13:13:49.535Z,22.40
2022-09-25T13:16:17.039Z,22.10
2022-09-25T13:18:49.152Z,22.10
2022-09-25T13:21:31.464Z,22.10
2022-09-25T13:23:59.606Z,22.10
2022-09-25T13:26:27.605Z,21.50
2022-09-25T13:29:13.178Z,21.50
2022-09-25T13:31:58.363Z,21.30
2022-09-25T13:34:26.597Z,21.10
2022-09-25T13:36:57.989Z,21.00
2022-09-25T13:40:03.851Z,20.80
2022-09-25T13:42:39.121Z,20.70
2022-09-25T13:45:26.096Z,20.60
2022-09-25T13:48:06.942Z,20.60
2022-09-25T13:50:40.886Z,20.50
2022-09-25T13:53:17.393Z,20.40
2022-09-25T13:56:04.302Z,20.40
2022-09-25T13:58:59.920Z,20.20
2022-09-25T14:01:34.436Z,20.10
2022-09-25T14:04:37.699Z,20.20
2022-09-25T14:07:21.468Z,20.20
2022-09-25T14:09:57.957Z,20.10
2022-09-25T14:12:44.096Z,20.00
2022-09-25T14:15:40.343Z,19.80
2022-09-25T14:18:15.963Z,19.80
2022-09-25T14:23:55.054Z,19.30
2022-09-25T14:33:01.858Z,19.40
2022-09-25T14:36:07.078Z,19.30
2022-09-25T14:39:25.684Z,19.20
2022-09-25T14:42:17.518Z,19.20
2022-09-25T14:44:54.236Z,19.20
2022-09-25T14:47:21.965Z,19.10
2022-09-25T14:49:55.204Z,19.10
2022-09-25T14:56:15.374Z,18.90
2022-09-25T15:02:56.850Z,18.70
2022-09-25T15:05:27.804Z,18.70
2022-09-25T15:07:59.387Z,18.70
2022-09-25T15:10:33.803Z,18.60
2022-09-25T15:13:13.087Z,18.50
2022-09-25T15:15:40.594Z,18.40
2022-09-25T15:18:14.370Z,18.30
2022-09-25T15:20:47.653Z,18.20
2022-09-25T15:23:19.028Z,18.10
2022-09-25T15:25:49.631Z,18.00
2022-09-25T15:28:24.592Z,17.90
2022-09-25T15:31:00.183Z,17.80
2022-09-25T15:33:34.053Z,17.70
2022-09-25T15:40:37.232Z,17.70
2022-09-25T15:43:12.812Z,17.60
2022-09-25T15:45:47.191Z,17.50
2022-09-25T15:48:22.685Z,17.40
2022-09-25T15:50:50.304Z,17.30
2022-09-25T15:53:36.222Z,17.20
2022-09-25T15:56:20.937Z,17.20
2022-09-25T15:58:54.856Z,17.10
2022-09-25T16:01:43.503Z,17.10
2022-09-25T16:04:39.419Z,17.00
2022-09-25T16:07:27.240Z,17.00
2022-09-25T16:09:57.310Z,16.90
2022-09-25T16:12:30.022Z,16.80
2022-09-25T16:14:58.072Z,16.80
2022-09-25T16:17:35.695Z,16.70
2022-09-25T16:20:16.723Z,16.60
2022-09-25T16:22:49.493Z,16.60
2022-09-25T16:25:24.741Z,16.50
2022-09-25T16:27:53.953Z,16.50
2022-09-25T16:30:23.132Z,16.50
2022-09-25T16:32:56.412Z,16.40
2022-09-25T16:36:08.882Z,16.30
2022-09-25T16:38:31.918Z,16.30
2022-09-25T16:41:22.391Z,16.20
2022-09-25T16:44:14.669Z,16.10
2022-09-25T16:46:52.293Z,16.10
2022-09-25T16:49:22.173Z,16.00
2022-09-25T16:51:50.468Z,16.00
2022-09-25T16:54:19.864Z,15.90
2022-09-25T16:56:48.292Z,15.90
2022-09-25T16:59:25.631Z,15.80
2022-09-25T17:01:56.992Z,15.80
2022-09-25T17:04:26.970Z,15.70
2022-09-25T17:06:57.040Z,15.60
2022-09-25T17:09:31.451Z,15.60
2022-09-25T17:12:07.513Z,15.50
2022-09-25T17:14:35.008Z,15.40
2022-09-25T17:17:02.089Z,15.40
2022-09-25T17:19:29.016Z,15.30
2022-09-25T17:21:56.223Z,15.30
2022-09-25T17:24:26.574Z,15.30
2022-09-25T17:26:53.729Z,15.30
2022-09-25T17:29:21.073Z,15.20
2022-09-25T17:31:48.170Z,15.20
2022-09-25T17:34:19.677Z,15.20
2022-09-25T17:36:47.085Z,15.20
2022-09-25T17:39:14.075Z,15.10
2022-09-25T17:41:41.777Z,15.10
2022-09-25T17:44:18.623Z,15.10
2022-09-25T17:46:45.886Z,15.00
2022-09-25T17:49:13.356Z,15.00
2022-09-25T17:51:40.833Z,15.00
2022-09-25T17:54:09.126Z,14.90
2022-09-25T17:56:37.860Z,14.90
2022-09-25T17:59:05.615Z,14.80
2022-09-25T18:01:38.934Z,14.80
2022-09-25T18:04:22.426Z,14.70
2022-09-25T18:06:49.308Z,14.80
2022-09-25T18:09:16.264Z,14.70
2022-09-25T18:11:44.351Z,14.70
2022-09-25T18:14:12.858Z,14.70
2022-09-25T18:16:42.146Z,14.70
2022-09-25T18:19:38.704Z,14.70
2022-09-25T18:22:19.116Z,14.70
2022-09-25T18:24:48.061Z,14.70
2022-09-25T18:27:15.738Z,14.70
2022-09-25T18:29:44.656Z,14.70
2022-09-25T18:32:11.671Z,14.60
2022-09-25T18:34:38.501Z,14.70
2022-09-25T18:37:05.541Z,14.60
2022-09-25T18:39:32.490Z,14.60
2022-09-25T18:41:59.333Z,14.60
2022-09-25T18:44:27.117Z,14.60
2022-09-25T18:46:54.720Z,14.60
2022-09-25T18:49:22.221Z,14.50
2022-09-25T18:51:49.221Z,14.50
2022-09-25T18:54:17.216Z,14.50
2022-09-25T18:56:44.006Z,14.50
2022-09-25T18:59:11.003Z,14.50
2022-09-25T19:01:39.383Z,14.50
2022-09-25T19:04:06.829Z,14.50
2022-09-25T19:06:34.169Z,14.40
2022-09-25T19:09:01.394Z,14.40
2022-09-25T19:11:28.967Z,14.40
2022-09-25T19:13:56.521Z,14.40
2022-09-25T19:16:24.274Z,14.40
2022-09-25T19:18:51.379Z,14.40
2022-09-25T19:21:22.755Z,14.40
2022-09-25T19:23:50.825Z,14.40
2022-09-25T19:26:25.946Z,14.30
2022-09-25T19:28:53.472Z,14.30
2022-09-25T19:31:23.329Z,14.20
2022-09-25T19:33:50.952Z,14.10
2022-09-25T19:36:24.689Z,14.10
2022-09-25T19:38:51.964Z,14.00
2022-09-25T19:41:25.023Z,14.00
2022-09-25T19:43:53.505Z,13.90
2022-09-25T19:46:20.539Z,13.80
2022-09-25T19:48:48.695Z,13.70
2022-09-25T19:51:17.478Z,13.70
2022-09-25T19:53:44.709Z,13.70
2022-09-25T19:56:11.898Z,13.60
2022-09-25T19:58:39.033Z,13.50
2022-09-25T20:01:11.093Z,13.50
2022-09-25T20:03:38.115Z,13.40
2022-09-25T20:06:05.862Z,13.30
2022-09-25T20:08:33.138Z,13.20
2022-09-25T20:11:00.273Z,13.20
2022-09-25T20:13:27.157Z,13.00
2022-09-25T20:15:55.046Z,13.00
2022-09-25T20:18:23.098Z,12.90
2022-09-25T20:20:50.065Z,12.80
2022-09-25T20:23:16.928Z,12.80
2022-09-25T20:25:43.853Z,12.70
2022-09-25T20:28:12.932Z,12.70
2022-09-25T20:30:40.135Z,12.60
2022-09-25T20:33:07.105Z,12.60
2022-09-25T20:35:34.226Z,12.50
2022-09-25T20:38:01.022Z,12.40
2022-09-25T20:40:27.861Z,12.40
2022-09-25T20:42:54.934Z,12.40
2022-09-25T20:45:21.716Z,12.30
2022-09-25T20:47:48.709Z,12.30
2022-09-25T20:50:15.927Z,12.30
2022-09-25T20:52:44.290Z,12.20
2022-09-25T20:55:12.204Z,12.20
2022-09-25T20:57:39.006Z,12.10
2022-09-25T21:00:06.398Z,12.00
2022-09-25T21:02:33.237Z,12.00
2022-09-25T21:05:00.027Z,12.00
2022-09-25T21:07:33.326Z,11.90
2022-09-25T21:10:01.219Z,11.90
2022-09-25T21:12:28.930Z,11.90
2022-09-25T21:14:58.976Z,11.90
2022-09-25T21:17:45.414Z,11.80
2022-09-25T21:20:12.606Z,11.80
2022-09-25T21:22:40.253Z,11.80
2022-09-25T21:25:07.494Z,11.80
2022-09-25T21:27:34.326Z,11.70
2022-09-25T21:30:01.341Z,11.70
2022-09-25T21:32:29.722Z,11.70
2022-09-25T21:34:56.500Z,11.70
2022-09-25T21:37:23.592Z,11.70
2022-09-25T21:39:50.358Z,11.70
2022-09-25T21:42:17.235Z,11.60
2022-09-25T21:44:44.104Z,11.60
2022-09-25T21:47:10.885Z,11.60
2022-09-25T21:49:38.545Z,11.60
2022-09-25T21:52:05.449Z,11.50
2022-09-25T21:54:32.473Z,11.50
2022-09-25T21:56:59.366Z,11.50
2022-09-25T21:59:26.480Z,11.50
2022-09-25T22:01:53.409Z,11.50
2022-09-25T22:04:20.221Z,11.40
2022-09-25T22:06:48.340Z,11.50
2022-09-25T22:09:23.218Z,11.40
2022-09-25T22:11:51.208Z,11.40
2022-09-25T22:14:20.013Z,11.30
2022-09-25T22:16:49.670Z,11.30
2022-09-25T22:19:29.609Z,11.30
2022-09-25T22:21:58.712Z,11.20
2022-09-25T22:24:25.905Z,11.20
2022-09-25T22:26:55.989Z,11.20
2022-09-25T22:29:23.547Z,11.20
2022-09-25T22:31:50.751Z,11.10
2022-09-25T22:34:27.143Z,11.10
2022-09-25T22:36:58.945Z,11.10
2022-09-25T22:39:27.268Z,11.10
2022-09-25T22:41:55.573Z,11.00
2022-09-25T22:44:22.847Z,10.90
2022-09-25T22:46:49.882Z,11.00
2022-09-25T22:49:16.856Z,11.00
2022-09-25T22:51:43.838Z,10.90
2022-09-25T22:54:13.817Z,11.00
2022-09-25T22:56:41.149Z,10.90
2022-09-25T22:59:11.322Z,10.90
2022-09-25T23:01:42.835Z,10.80
2022-09-25T23:04:16.695Z,10.90
2022-09-25T23:06:43.802Z,10.70
2022-09-25T23:09:13.506Z,10.70
2022-09-25T23:11:41.076Z,10.60
2022-09-25T23:14:17.452Z,10.60
2022-09-25T23:16:46.475Z,10.60
2022-09-25T23:19:14.615Z,10.60
2022-09-25T23:21:42.154Z,10.60
2022-09-25T23:24:12.439Z,10.60
2022-09-25T23:26:39.581Z,10.60
2022-09-25T23:29:06.404Z,10.60
2022-09-25T23:31:34.232Z,10.50
2022-09-25T23:34:02.180Z,10.60
2022-09-25T23:36:29.984Z,10.50
2022-09-25T23:39:00.610Z,10.50
2022-09-25T23:41:30.497Z,10.40
2022-09-25T23:43:58.698Z,10.40
2022-09-25T23:46:43.694Z,10.50
2022-09-25T23:49:11.353Z,10.50
2022-09-25T23:51:38.883Z,10.50
2022-09-25T23:54:06.391Z,10.40
2022-09-25T23:56:34.788Z,10.40
2022-09-25T23:59:02.587Z,10.40
